Time;durP1;ratioP1;P1;durP2;ratioP2;P2;SDS_P1;SDS_P2;PMS_P1;PMS_P2;Temp;Humidity;BMP_temperature;BMP_pressure;BME280_temperature;BME280_humidity;BME280_pressure;Samples;Min_cycle;Max_cycle;Signal;HPM_P1;HPM_P2
2022/07/16 00:01:37;;;;;;;2.80;0.70;;;;;;;;;;103200;1320;22720;-27
2022/07/16 00:04:06;;;;;;;1.80;1.00;;;;;;;;;;103275;1320;23058;-24
2022/07/16 00:06:35;;;;;;;5.60;1.10;;;;;;;;;;102559;1326;1003117;-25
2022/07/16 00:09:03;;;;;;;4.70;1.20;;;;;;;;;;103233;1320;22989;-29
2022/07/16 00:11:32;;;;;;;2.00;1.00;;;;;;;;;;103223;1326;22575;-27
2022/07/16 00:14:01;;;;;;;2.00;1.20;;;;;;;;;;103361;1326;22676;-28
2022/07/16 00:16:30;;;;;;;5.00;1.00;;;;;;;;;;103211;1313;22691;-28
2022/07/16 00:21:31;;;;;;;2.20;0.80;;;;;;;;;;103336;1320;22832;-24
2022/07/16 00:24:00;;;;;;;2.80;1.00;;;;;;;;;;103046;1323;22717;-28
2022/07/16 00:26:29;;;;;;;17.40;1.70;;;;;;;;;;103086;1314;22864;-30
2022/07/16 00:28:58;;;;;;;1.80;1.10;;;;;;;;;;103231;1323;22821;-24
2022/07/16 00:31:27;;;;;;;2.60;1.20;;;;;;;;;;103139;1314;22842;-24
2022/07/16 00:33:55;;;;;;;3.00;1.30;;;;;;;;;;103226;1323;22719;-24
2022/07/16 00:36:24;;;;;;;6.30;1.70;;;;;;;;;;103199;1323;22616;-28
2022/07/16 00:38:53;;;;;;;1.50;1.30;;;;;;;;;;103227;1320;22721;-24
2022/07/16 00:41:22;;;;;;;3.00;1.90;;;;;;;;;;103329;1313;22740;-28
2022/07/16 00:43:52;;;;;;;1.60;1.30;;;;;;;;;;103135;1313;22549;-24
2022/07/16 00:46:21;;;;;;;3.70;2.00;;;;;;;;;;103319;1320;22863;-29
2022/07/16 00:48:50;;;;;;;3.00;1.60;;;;;;;;;;103116;1313;22799;-23
2022/07/16 00:51:19;;;;;;;5.40;2.30;;;;;;;;;;103238;1314;22554;-28
2022/07/16 00:53:48;;;;;;;5.40;2.60;;;;;;;;;;103159;1323;22850;-28
2022/07/16 00:56:17;;;;;;;2.00;1.30;;;;;;;;;;103117;1313;22711;-24
2022/07/16 00:58:46;;;;;;;4.70;1.00;;;;;;;;;;103362;1323;22697;-28
2022/07/16 01:01:15;;;;;;;4.30;0.90;;;;;;;;;;103235;1314;22548;-25
2022/07/16 01:03:44;;;;;;;7.20;1.90;;;;;;;;;;103093;1320;23008;-28
2022/07/16 01:06:13;;;;;;;6.40;1.40;;;;;;;;;;103119;1314;22604;-26
2022/07/16 01:08:43;;;;;;;2.50;1.30;;;;;;;;;;103284;1320;23060;-29
2022/07/16 01:11:13;;;;;;;1.50;1.10;;;;;;;;;;103162;1320;25401;-25
2022/07/16 01:13:42;;;;;;;7.50;1.60;;;;;;;;;;103381;1320;22778;-24
2022/07/16 01:16:11;;;;;;;7.90;1.30;;;;;;;;;;103120;1326;22575;-28
2022/07/16 01:18:41;;;;;;;3.80;1.70;;;;;;;;;;103136;1320;23150;-29
2022/07/16 01:21:11;;;;;;;3.80;1.50;;;;;;;;;;103146;1314;22857;-24
2022/07/16 01:23:40;;;;;;;2.80;1.40;;;;;;;;;;103060;1320;22710;-28
2022/07/16 01:26:09;;;;;;;7.00;1.70;;;;;;;;;;103138;1314;22582;-30
2022/07/16 01:28:38;;;;;;;2.00;1.10;;;;;;;;;;103168;1320;22733;-28
2022/07/16 01:31:06;;;;;;;2.20;1.50;;;;;;;;;;103327;1323;22712;-25
2022/07/16 01:33:36;;;;;;;5.00;1.80;;;;;;;;;;103221;1323;22610;-30
2022/07/16 01:36:06;;;;;;;2.90;1.20;;;;;;;;;;103122;1314;22566;-24
2022/07/16 01:38:37;;;;;;;12.10;1.40;;;;;;;;;;103064;1320;22893;-28
2022/07/16 01:41:06;;;;;;;3.50;1.40;;;;;;;;;;103282;1321;22559;-25
2022/07/16 01:43:35;;;;;;;2.10;1.40;;;;;;;;;;103131;1323;22791;-24
2022/07/16 01:46:04;;;;;;;1.50;0.70;;;;;;;;;;103136;1313;22546;-29
2022/07/16 01:48:33;;;;;;;2.80;2.00;;;;;;;;;;103195;1326;22686;-27
2022/07/16 01:51:02;;;;;;;3.20;1.50;;;;;;;;;;103214;1320;22729;-24
2022/07/16 01:53:31;;;;;;;1.80;1.10;;;;;;;;;;103048;1314;22679;-28
2022/07/16 01:56:00;;;;;;;6.10;2.20;;;;;;;;;;103128;1313;22570;-26
2022/07/16 01:58:29;;;;;;;4.70;1.80;;;;;;;;;;103160;1320;22566;-24
2022/07/16 02:00:57;;;;;;;2.80;1.60;;;;;;;;;;103146;1313;22707;-26
2022/07/16 02:03:26;;;;;;;2.00;1.20;;;;;;;;;;103134;1320;22712;-26
2022/07/16 02:05:55;;;;;;;2.20;1.60;;;;;;;;;;103196;1313;23076;-27
2022/07/16 02:08:24;;;;;;;2.70;1.40;;;;;;;;;;103179;1323;22719;-24
2022/07/16 02:10:52;;;;;;;1.80;1.30;;;;;;;;;;103227;1322;22574;-24
2022/07/16 02:13:21;;;;;;;4.00;1.40;;;;;;;;;;103268;1323;22565;-28
2022/07/16 02:15:50;;;;;;;1.90;1.00;;;;;;;;;;103220;1313;22698;-27
2022/07/16 02:18:18;;;;;;;5.20;1.30;;;;;;;;;;103182;1323;23206;-25
2022/07/16 02:20:47;;;;;;;4.00;1.60;;;;;;;;;;103014;1326;22864;-25
2022/07/16 02:23:16;;;;;;;1.20;0.90;;;;;;;;;;103109;1324;22685;-30
2022/07/16 02:25:45;;;;;;;2.60;1.30;;;;;;;;;;103293;1314;22575;-27
2022/07/16 02:28:14;;;;;;;3.00;1.10;;;;;;;;;;103148;1323;22854;-24
2022/07/16 02:30:44;;;;;;;3.80;1.40;;;;;;;;;;103265;1314;22721;-30
2022/07/16 02:33:14;;;;;;;2.70;1.20;;;;;;;;;;103125;1314;22572;-25
2022/07/16 02:35:42;;;;;;;1.90;1.00;;;;;;;;;;103194;1324;22564;-28
2022/07/16 02:38:12;;;;;;;2.80;1.40;;;;;;;;;;103248;1314;22565;-29
2022/07/16 02:40:41;;;;;;;15.80;1.70;;;;;;;;;;103257;1314;22545;-28
2022/07/16 02:43:10;;;;;;;3.30;1.10;;;;;;;;;;103328;1314;22548;-24
2022/07/16 02:45:39;;;;;;;4.00;1.10;;;;;;;;;;103137;1313;22712;-24
2022/07/16 02:48:09;;;;;;;2.50;1.10;;;;;;;;;;103286;1320;22558;-26
2022/07/16 02:50:39;;;;;;;4.60;1.40;;;;;;;;;;103176;1320;22687;-30
2022/07/16 02:53:07;;;;;;;3.20;1.60;;;;;;;;;;103239;1320;22780;-30
2022/07/16 02:55:36;;;;;;;3.80;1.30;;;;;;;;;;103247;1314;22862;-24
2022/07/16 02:58:05;;;;;;;11.60;1.60;;;;;;;;;;103159;1328;25540;-24
2022/07/16 03:00:34;;;;;;;2.50;1.20;;;;;;;;;;103164;1320;22567;-25
2022/07/16 03:03:03;;;;;;;3.40;1.10;;;;;;;;;;103144;1320;22576;-30
2022/07/16 03:05:32;;;;;;;2.50;1.00;;;;;;;;;;103326;1313;22939;-25
2022/07/16 03:08:01;;;;;;;3.70;1.10;;;;;;;;;;103154;1323;22559;-30
2022/07/16 03:10:29;;;;;;;2.50;1.40;;;;;;;;;;103147;1323;22723;-26
2022/07/16 03:12:58;;;;;;;1.30;1.00;;;;;;;;;;103266;1323;22564;-30
2022/07/16 03:15:27;;;;;;;4.20;1.20;;;;;;;;;;103270;1313;22545;-28
2022/07/16 03:17:56;;;;;;;2.70;1.70;;;;;;;;;;103137;1326;22841;-28
2022/07/16 03:20:24;;;;;;;21.70;0.80;;;;;;;;;;102468;1313;1003924;-30
2022/07/16 03:22:53;;;;;;;3.00;1.40;;;;;;;;;;103307;1320;22733;-28
2022/07/16 03:25:22;;;;;;;5.10;2.10;;;;;;;;;;103133;1313;22557;-29
2022/07/16 03:27:51;;;;;;;2.20;1.00;;;;;;;;;;103299;1313;22715;-30
2022/07/16 03:30:20;;;;;;;3.80;1.00;;;;;;;;;;103159;1314;22722;-25
2022/07/16 03:32:49;;;;;;;6.40;1.20;;;;;;;;;;103128;1320;22723;-30
2022/07/16 03:35:17;;;;;;;2.60;1.50;;;;;;;;;;103265;1313;23036;-30
2022/07/16 03:40:19;;;;;;;4.90;1.60;;;;;;;;;;103248;1320;22564;-25
2022/07/16 03:42:47;;;;;;;3.20;1.00;;;;;;;;;;103192;1323;22565;-26
2022/07/16 03:45:16;;;;;;;3.80;1.10;;;;;;;;;;103236;1314;22562;-27
2022/07/16 03:47:45;;;;;;;4.90;1.60;;;;;;;;;;103247;1321;22851;-24
2022/07/16 03:50:14;;;;;;;4.00;1.10;;;;;;;;;;103244;1323;23278;-24
2022/07/16 03:52:43;;;;;;;3.90;1.30;;;;;;;;;;103110;1323;22593;-28
2022/07/16 03:55:12;;;;;;;1.90;1.00;;;;;;;;;;103121;1313;22959;-26
2022/07/16 03:57:41;;;;;;;2.00;1.10;;;;;;;;;;103327;1320;22724;-30
2022/07/16 04:00:11;;;;;;;4.10;1.50;;;;;;;;;;103241;1313;22710;-28
2022/07/16 04:02:40;;;;;;;1.90;0.60;;;;;;;;;;102749;1320;662212;-28
2022/07/16 04:05:09;;;;;;;2.40;1.20;;;;;;;;;;103107;1320;22712;-25
2022/07/16 04:07:38;;;;;;;3.30;1.70;;;;;;;;;;103125;1320;22725;-25
2022/07/16 04:10:07;;;;;;;1.60;1.10;;;;;;;;;;103173;1323;22571;-25
2022/07/16 04:12:36;;;;;;;1.70;0.90;;;;;;;;;;103249;1320;22717;-28
2022/07/16 04:15:05;;;;;;;2.90;1.30;;;;;;;;;;103139;1323;22573;-22
2022/07/16 04:17:33;;;;;;;4.30;1.30;;;;;;;;;;103148;1321;22720;-29
2022/07/16 04:20:03;;;;;;;1.90;0.90;;;;;;;;;;103182;1318;22546;-30
2022/07/16 04:22:32;;;;;;;3.80;1.20;;;;;;;;;;103194;1320;22562;-30
2022/07/16 04:25:01;;;;;;;2.60;1.20;;;;;;;;;;103240;1323;22576;-28
2022/07/16 04:27:29;;;;;;;2.30;1.10;;;;;;;;;;103230;1313;22712;-28
2022/07/16 04:29:58;;;;;;;3.30;1.30;;;;;;;;;;103204;1313;22725;-28
2022/07/16 04:32:27;;;;;;;3.60;1.30;;;;;;;;;;103222;1323;22562;-25
2022/07/16 04:34:56;;;;;;;3.70;0.80;;;;;;;;;;103282;1313;22579;-24
2022/07/16 04:37:25;;;;;;;2.00;1.10;;;;;;;;;;103286;1320;22594;-30
2022/07/16 04:39:54;;;;;;;3.60;0.80;;;;;;;;;;103171;1314;22566;-28
2022/07/16 04:42:23;;;;;;;4.50;1.30;;;;;;;;;;103145;1323;22714;-28
2022/07/16 04:44:51;;;;;;;7.30;1.90;;;;;;;;;;103119;1313;22565;-24
2022/07/16 04:47:20;;;;;;;3.00;1.60;;;;;;;;;;103234;1323;22712;-27
2022/07/16 04:49:49;;;;;;;2.60;1.00;;;;;;;;;;103214;1314;22822;-24
2022/07/16 04:52:17;;;;;;;5.60;1.80;;;;;;;;;;103165;1323;22593;-28
2022/07/16 04:54:46;;;;;;;3.40;0.60;;;;;;;;;;103173;1313;22859;-28
2022/07/16 04:57:15;;;;;;;1.80;1.00;;;;;;;;;;103240;1323;22866;-24
2022/07/16 04:59:44;;;;;;;3.80;1.40;;;;;;;;;;103175;1313;22864;-28
2022/07/16 05:04:45;;;;;;;7.70;0.80;;;;;;;;;;103193;1320;23268;-25
2022/07/16 05:07:14;;;;;;;2.50;1.10;;;;;;;;;;103357;1323;22575;-25
2022/07/16 05:09:43;;;;;;;3.00;0.90;;;;;;;;;;103212;1313;22654;-29
2022/07/16 05:12:11;;;;;;;2.30;1.00;;;;;;;;;;103127;1323;23013;-26
2022/07/16 05:14:40;;;;;;;2.60;1.10;;;;;;;;;;103235;1313;22557;-25
2022/07/16 05:17:09;;;;;;;4.20;1.20;;;;;;;;;;103153;1313;22572;-28
2022/07/16 05:19:38;;;;;;;3.60;1.10;;;;;;;;;;103286;1313;22565;-29
2022/07/16 05:22:07;;;;;;;3.70;1.30;;;;;;;;;;103314;1320;22578;-28
2022/07/16 05:24:36;;;;;;;2.40;1.30;;;;;;;;;;103030;1313;22699;-23
2022/07/16 05:27:04;;;;;;;5.40;1.00;;;;;;;;;;103189;1314;22569;-30
2022/07/16 05:29:33;;;;;;;1.70;0.80;;;;;;;;;;103309;1320;22594;-28
2022/07/16 05:32:02;;;;;;;2.30;1.00;;;;;;;;;;103146;1323;22559;-25
2022/07/16 05:34:31;;;;;;;1.80;0.90;;;;;;;;;;103246;1314;22729;-29
2022/07/16 05:37:00;;;;;;;2.60;0.70;;;;;;;;;;103142;1326;22553;-28
2022/07/16 05:39:29;;;;;;;3.30;0.90;;;;;;;;;;103230;1323;22729;-28
2022/07/16 05:41:58;;;;;;;2.20;1.30;;;;;;;;;;103224;1320;22681;-28
2022/07/16 05:44:27;;;;;;;5.90;0.80;;;;;;;;;;103137;1323;22550;-29
2022/07/16 05:46:56;;;;;;;1.10;0.90;;;;;;;;;;103212;1314;22600;-30
2022/07/16 05:49:25;;;;;;;5.70;1.10;;;;;;;;;;103173;1323;22716;-29
2022/07/16 05:51:54;;;;;;;2.50;0.90;;;;;;;;;;103237;1320;22551;-28
2022/07/16 05:54:23;;;;;;;2.20;1.00;;;;;;;;;;103178;1320;22721;-28
2022/07/16 05:56:51;;;;;;;0.90;0.50;;;;;;;;;;103196;1314;22568;-24
2022/07/16 05:59:20;;;;;;;6.00;1.30;;;;;;;;;;103271;1328;22546;-25
2022/07/16 06:01:49;;;;;;;0.70;0.60;;;;;;;;;;103264;1320;22718;-27
2022/07/16 06:04:18;;;;;;;2.10;0.60;;;;;;;;;;103226;1324;22882;-24
2022/07/16 06:06:47;;;;;;;1.20;0.50;;;;;;;;;;103202;1323;22725;-27
2022/07/16 06:09:15;;;;;;;3.70;0.70;;;;;;;;;;103244;1323;22732;-25
2022/07/16 06:11:46;;;;;;;11.20;1.10;;;;;;;;;;103129;1320;22706;-28
2022/07/16 06:14:14;;;;;;;2.60;0.90;;;;;;;;;;103232;1320;25331;-28
2022/07/16 06:16:43;;;;;;;1.70;0.70;;;;;;;;;;103095;1314;23087;-24
2022/07/16 06:19:12;;;;;;;2.20;0.60;;;;;;;;;;103214;1323;22574;-27
2022/07/16 06:21:41;;;;;;;2.30;0.90;;;;;;;;;;103307;1314;23072;-27
2022/07/16 06:24:09;;;;;;;5.40;0.90;;;;;;;;;;103245;1323;22707;-24
2022/07/16 06:26:46;;;;;;;2.60;0.90;;;;;;;;;;103281;1323;22729;-25
2022/07/16 06:29:15;;;;;;;7.60;0.80;;;;;;;;;;103320;1314;22587;-24
2022/07/16 06:31:44;;;;;;;2.50;0.40;;;;;;;;;;103218;1313;22570;-26
2022/07/16 06:34:13;;;;;;;3.30;0.80;;;;;;;;;;103305;1314;22707;-27
2022/07/16 06:36:42;;;;;;;0.60;0.30;;;;;;;;;;102453;1323;1003656;-25
2022/07/16 06:39:11;;;;;;;0.70;0.40;;;;;;;;;;103092;1314;22940;-28
2022/07/16 06:41:40;;;;;;;2.00;0.60;;;;;;;;;;103130;1313;22575;-31
2022/07/16 06:44:09;;;;;;;0.90;0.40;;;;;;;;;;103320;1320;22717;-30
2022/07/16 06:46:38;;;;;;;1.10;0.50;;;;;;;;;;103157;1314;22542;-28
2022/07/16 06:49:06;;;;;;;0.40;0.30;;;;;;;;;;103204;1323;22720;-25
2022/07/16 06:51:36;;;;;;;3.00;0.50;;;;;;;;;;103211;1322;23018;-27
2022/07/16 06:54:04;;;;;;;0.80;0.50;;;;;;;;;;103091;1323;22571;-29
2022/07/16 06:56:42;;;;;;;0.80;0.60;;;;;;;;;;103128;1322;25394;-25
2022/07/16 06:59:11;;;;;;;1.50;0.50;;;;;;;;;;103288;1320;22820;-29
2022/07/16 07:01:39;;;;;;;3.50;0.50;;;;;;;;;;103152;1313;22561;-25
2022/07/16 07:04:08;;;;;;;1.40;0.70;;;;;;;;;;103171;1323;22557;-28
2022/07/16 07:06:37;;;;;;;0.70;0.30;;;;;;;;;;103236;1313;22558;-26
2022/07/16 07:09:06;;;;;;;1.30;0.30;;;;;;;;;;103300;1323;22555;-25
2022/07/16 07:11:34;;;;;;;0.60;0.40;;;;;;;;;;103121;1321;22724;-29
2022/07/16 07:14:03;;;;;;;1.70;0.60;;;;;;;;;;103185;1323;22562;-28
2022/07/16 07:16:32;;;;;;;2.90;0.40;;;;;;;;;;103176;1314;22554;-25
2022/07/16 07:19:01;;;;;;;1.60;0.30;;;;;;;;;;103160;1323;22699;-31
2022/07/16 07:21:30;;;;;;;1.90;0.50;;;;;;;;;;103212;1314;22564;-31
2022/07/16 07:23:59;;;;;;;4.10;0.40;;;;;;;;;;103047;1321;22711;-25
2022/07/16 07:26:28;;;;;;;3.50;0.50;;;;;;;;;;103094;1314;22595;-28
2022/07/16 07:28:56;;;;;;;1.50;0.30;;;;;;;;;;103222;1323;22857;-29
2022/07/16 07:31:25;;;;;;;3.50;0.40;;;;;;;;;;103120;1314;22559;-29
2022/07/16 07:33:54;;;;;;;1.70;0.60;;;;;;;;;;103198;1323;22832;-29
2022/07/16 07:36:23;;;;;;;2.00;0.40;;;;;;;;;;103165;1320;22666;-27
2022/07/16 07:38:52;;;;;;;0.90;0.30;;;;;;;;;;103069;1313;22562;-28
2022/07/16 07:41:20;;;;;;;1.20;0.30;;;;;;;;;;103123;1314;22712;-28
2022/07/16 07:43:49;;;;;;;3.40;0.60;;;;;;;;;;103140;1323;22848;-31
2022/07/16 07:46:20;;;;;;;2.30;0.40;;;;;;;;;;103152;1314;22701;-31
2022/07/16 07:48:48;;;;;;;0.70;0.30;;;;;;;;;;103095;1320;22718;-29
2022/07/16 07:51:17;;;;;;;0.80;0.30;;;;;;;;;;103147;1323;22671;-28
2022/07/16 07:53:46;;;;;;;0.50;0.30;;;;;;;;;;103135;1323;22561;-27
2022/07/16 07:56:15;;;;;;;1.80;0.40;;;;;;;;;;103123;1320;22824;-29
2022/07/16 07:58:44;;;;;;;3.20;1.60;;;;;;;;;;103364;1320;22546;-29
2022/07/16 08:01:13;;;;;;;0.70;0.30;;;;;;;;;;103178;1313;22728;-29
2022/07/16 08:03:41;;;;;;;0.60;0.40;;;;;;;;;;103143;1326;22557;-29
2022/07/16 08:06:10;;;;;;;1.30;0.30;;;;;;;;;;103095;1315;22552;-24
2022/07/16 08:08:39;;;;;;;1.20;0.40;;;;;;;;;;103133;1322;22722;-26
2022/07/16 08:11:08;;;;;;;3.50;0.30;;;;;;;;;;103330;1314;22739;-27
2022/07/16 08:13:37;;;;;;;0.20;0.20;;;;;;;;;;103177;1320;22730;-25
2022/07/16 08:16:06;;;;;;;1.30;0.40;;;;;;;;;;103169;1321;22761;-28
2022/07/16 08:18:34;;;;;;;1.30;0.40;;;;;;;;;;103144;1320;22682;-26
2022/07/16 08:21:03;;;;;;;0.80;0.20;;;;;;;;;;103121;1313;25917;-27
2022/07/16 08:26:04;;;;;;;0.20;0.20;;;;;;;;;;103171;1321;22564;-29
2022/07/16 08:28:34;;;;;;;1.00;0.20;;;;;;;;;;103185;1314;22680;-27
2022/07/16 08:31:03;;;;;;;1.40;0.40;;;;;;;;;;103186;1320;22829;-30
2022/07/16 08:33:31;;;;;;;0.40;0.20;;;;;;;;;;103126;1314;22555;-26
2022/07/16 08:36:01;;;;;;;0.80;0.30;;;;;;;;;;103050;1313;22857;-31
2022/07/16 08:38:29;;;;;;;1.20;0.30;;;;;;;;;;103133;1320;22562;-26
2022/07/16 08:40:58;;;;;;;5.10;0.40;;;;;;;;;;103130;1314;22561;-31
2022/07/16 08:43:27;;;;;;;3.70;0.20;;;;;;;;;;103145;1320;22592;-31
2022/07/16 08:45:56;;;;;;;0.30;0.20;;;;;;;;;;103172;1313;23314;-29
2022/07/16 08:48:25;;;;;;;1.50;0.20;;;;;;;;;;103115;1326;22559;-31
2022/07/16 08:50:54;;;;;;;1.60;0.30;;;;;;;;;;103147;1320;22813;-26
2022/07/16 08:53:23;;;;;;;0.60;0.20;;;;;;;;;;103160;1320;22719;-26
2022/07/16 08:55:52;;;;;;;0.80;0.30;;;;;;;;;;103173;1314;22562;-25
2022/07/16 08:58:21;;;;;;;0.20;0.10;;;;;;;;;;103129;1321;22873;-31
2022/07/16 09:00:50;;;;;;;0.40;0.40;;;;;;;;;;103216;1328;22605;-29
2022/07/16 09:03:18;;;;;;;0.30;0.20;;;;;;;;;;103081;1322;22559;-26
2022/07/16 09:05:48;;;;;;;0.20;0.10;;;;;;;;;;103132;1320;22489;-23
2022/07/16 09:08:17;;;;;;;4.40;0.60;;;;;;;;;;103134;1320;22910;-31
2022/07/16 09:10:46;;;;;;;1.30;0.30;;;;;;;;;;103142;1313;22594;-29
2022/07/16 09:13:15;;;;;;;1.60;0.40;;;;;;;;;;103167;1320;23144;-26
2022/07/16 09:15:44;;;;;;;0.10;0.00;;;;;;;;;;103138;1320;22723;-29
2022/07/16 09:18:22;;;;;;;1.00;0.30;;;;;;;;;;103214;1314;22557;-25
2022/07/16 09:20:52;;;;;;;0.40;0.20;;;;;;;;;;103318;1312;22669;-31
2022/07/16 09:23:22;;;;;;;6.90;0.40;;;;;;;;;;103130;1326;22682;-29
2022/07/16 09:25:55;;;;;;;1.20;0.30;;;;;;;;;;102549;1320;1003831;-25
2022/07/16 09:28:25;;;;;;;0.60;0.30;;;;;;;;;;103176;1320;22984;-26
2022/07/16 09:30:53;;;;;;;0.60;0.30;;;;;;;;;;103162;1320;22728;-30
2022/07/16 09:33:22;;;;;;;0.40;0.20;;;;;;;;;;103136;1323;22567;-25
2022/07/16 09:36:04;;;;;;;1.40;0.80;;;;;;;;;;103277;1315;22719;-25
2022/07/16 09:38:45;;;;;;;1.10;0.30;;;;;;;;;;103004;1315;22570;-25
2022/07/16 09:41:14;;;;;;;0.90;0.30;;;;;;;;;;103245;1320;22669;-26
2022/07/16 09:43:43;;;;;;;1.90;0.20;;;;;;;;;;103180;1320;22626;-25
2022/07/16 09:46:15;;;;;;;1.40;0.30;;;;;;;;;;103189;1321;24322;-25
2022/07/16 09:48:44;;;;;;;0.10;0.10;;;;;;;;;;103085;1321;22980;-25
2022/07/16 09:51:16;;;;;;;1.00;0.30;;;;;;;;;;103114;1327;22893;-31
2022/07/16 09:53:46;;;;;;;0.50;0.10;;;;;;;;;;103107;1320;22570;-29
2022/07/16 09:56:16;;;;;;;1.10;0.30;;;;;;;;;;103139;1320;25311;-31
2022/07/16 09:58:46;;;;;;;0.20;0.20;;;;;;;;;;103267;1320;22996;-31
2022/07/16 10:01:16;;;;;;;0.20;0.10;;;;;;;;;;103125;1320;25398;-30
2022/07/16 10:03:45;;;;;;;2.20;0.20;;;;;;;;;;103139;1320;22768;-26
2022/07/16 10:06:14;;;;;;;1.20;0.30;;;;;;;;;;103168;1314;22577;-26
2022/07/16 10:08:43;;;;;;;1.00;0.20;;;;;;;;;;103145;1320;22802;-31
2022/07/16 10:11:12;;;;;;;3.40;0.30;;;;;;;;;;103145;1320;22740;-29
2022/07/16 10:13:43;;;;;;;0.50;0.30;;;;;;;;;;103157;1320;22705;-26
2022/07/16 10:16:12;;;;;;;0.10;0.10;;;;;;;;;;103130;1326;22710;-29
2022/07/16 10:18:42;;;;;;;0.90;0.40;;;;;;;;;;103235;1323;22863;-30
2022/07/16 10:21:15;;;;;;;0.20;0.20;;;;;;;;;;103099;1320;22588;-30
2022/07/16 10:23:45;;;;;;;0.40;0.30;;;;;;;;;;103345;1320;22549;-30
2022/07/16 10:26:16;;;;;;;0.80;0.40;;;;;;;;;;103137;1314;22732;-25
2022/07/16 10:28:54;;;;;;;1.50;0.60;;;;;;;;;;103178;1320;22590;-28
2022/07/16 10:31:35;;;;;;;0.70;0.40;;;;;;;;;;103208;1312;22736;-30
2022/07/16 10:34:33;;;;;;;1.00;0.40;;;;;;;;;;103151;1320;22719;-26
2022/07/16 10:37:11;;;;;;;1.20;0.20;;;;;;;;;;103242;1324;22678;-26
2022/07/16 10:39:56;;;;;;;0.90;0.40;;;;;;;;;;103122;1314;23068;-29
2022/07/16 10:42:25;;;;;;;0.50;0.20;;;;;;;;;;103174;1321;22693;-28
2022/07/16 10:44:54;;;;;;;1.30;0.30;;;;;;;;;;103128;1314;22579;-25
2022/07/16 10:47:41;;;;;;;0.70;0.20;;;;;;;;;;103202;1323;22864;-27
2022/07/16 10:50:12;;;;;;;1.40;0.20;;;;;;;;;;103201;1326;23157;-29
2022/07/16 10:52:41;;;;;;;0.50;0.20;;;;;;;;;;103228;1323;22704;-29
2022/07/16 10:55:10;;;;;;;3.80;0.40;;;;;;;;;;103159;1323;22559;-29
2022/07/16 10:57:40;;;;;;;2.70;0.50;;;;;;;;;;103339;1323;22594;-29
2022/07/16 11:00:09;;;;;;;3.70;0.50;;;;;;;;;;103064;1320;22549;-24
2022/07/16 11:02:38;;;;;;;0.70;0.20;;;;;;;;;;103054;1323;22582;-29
2022/07/16 11:05:08;;;;;;;3.00;0.30;;;;;;;;;;103277;1314;23030;-29
2022/07/16 11:07:37;;;;;;;0.50;0.20;;;;;;;;;;103111;1326;22924;-24
2022/07/16 11:10:06;;;;;;;0.90;0.20;;;;;;;;;;103140;1314;22562;-24
2022/07/16 11:12:37;;;;;;;1.20;0.40;;;;;;;;;;103313;1326;23065;-30
2022/07/16 11:15:06;;;;;;;0.40;0.30;;;;;;;;;;103075;1320;22588;-29
2022/07/16 11:17:43;;;;;;;2.80;0.60;;;;;;;;;;103096;1320;22855;-28
2022/07/16 11:20:12;;;;;;;1.50;0.70;;;;;;;;;;103120;1320;22550;-27
2022/07/16 11:22:41;;;;;;;1.40;0.40;;;;;;;;;;103285;1320;22564;-28
2022/07/16 11:25:10;;;;;;;9.80;0.90;;;;;;;;;;103121;1320;22930;-29
2022/07/16 11:27:39;;;;;;;2.70;0.70;;;;;;;;;;103163;1320;23048;-26
2022/07/16 11:30:09;;;;;;;2.00;0.70;;;;;;;;;;103299;1314;22562;-30
2022/07/16 11:32:41;;;;;;;0.00;0.00;;;;;;;;;;103169;1320;25363;-29
2022/07/16 11:35:10;;;;;;;2.80;0.70;;;;;;;;;;103135;1320;24331;-24
2022/07/16 11:37:43;;;;;;;4.50;1.00;;;;;;;;;;103162;1320;22575;-29
2022/07/16 11:40:11;;;;;;;0.70;0.40;;;;;;;;;;103270;1320;22570;-25
2022/07/16 11:42:40;;;;;;;3.70;1.10;;;;;;;;;;103109;1321;22580;-29
2022/07/16 11:45:10;;;;;;;1.20;0.30;;;;;;;;;;103181;1314;22568;-29
2022/07/16 11:47:38;;;;;;;2.20;0.70;;;;;;;;;;103227;1326;22671;-25
2022/07/16 11:50:07;;;;;;;1.00;0.50;;;;;;;;;;103085;1315;22567;-31
2022/07/16 11:52:36;;;;;;;6.00;0.70;;;;;;;;;;103260;1320;22588;-29
2022/07/16 11:55:09;;;;;;;0.40;0.20;;;;;;;;;;103222;1313;22705;-25
2022/07/16 11:57:47;;;;;;;0.90;0.20;;;;;;;;;;103196;1315;22722;-29
2022/07/16 12:00:24;;;;;;;0.10;0.10;;;;;;;;;;103130;1314;22708;-30
2022/07/16 12:03:02;;;;;;;1.70;0.60;;;;;;;;;;103022;1328;425303;-26
2022/07/16 12:05:31;;;;;;;4.00;0.30;;;;;;;;;;103153;1320;22670;-25
2022/07/16 12:08:02;;;;;;;1.20;0.50;;;;;;;;;;103108;1326;22752;-25
2022/07/16 12:10:30;;;;;;;1.30;0.40;;;;;;;;;;103077;1321;22724;-31
2022/07/16 12:13:00;;;;;;;0.90;0.30;;;;;;;;;;103025;1324;22610;-25
2022/07/16 12:15:29;;;;;;;0.40;0.30;;;;;;;;;;103125;1326;22564;-24
2022/07/16 12:18:10;;;;;;;2.90;0.20;;;;;;;;;;103212;1323;22719;-24
2022/07/16 12:20:38;;;;;;;;;;;;;;;;;;103079;1328;22723;-29
2022/07/16 12:23:10;;;;;;;4.70;0.40;;;;;;;;;;103139;1323;22876;-26
2022/07/16 12:25:41;;;;;;;2.10;0.50;;;;;;;;;;103136;1326;22708;-30
2022/07/16 12:28:11;;;;;;;1.50;0.60;;;;;;;;;;103102;1320;22564;-29
2022/07/16 12:30:40;;;;;;;0.10;0.10;;;;;;;;;;103217;1320;22715;-28
2022/07/16 12:33:12;;;;;;;0.40;0.30;;;;;;;;;;103132;1327;22749;-30
2022/07/16 12:35:43;;;;;;;0.60;0.40;;;;;;;;;;103119;1314;22716;-26
2022/07/16 12:38:15;;;;;;;7.60;0.70;;;;;;;;;;103079;1321;22551;-26
2022/07/16 12:40:44;;;;;;;1.40;0.80;;;;;;;;;;103158;1320;22553;-25
2022/07/16 12:43:13;;;;;;;0.70;0.40;;;;;;;;;;103168;1313;22655;-23
2022/07/16 12:45:42;;;;;;;3.80;0.80;;;;;;;;;;103118;1320;22573;-28
2022/07/16 12:48:10;;;;;;;0.80;0.30;;;;;;;;;;103160;1321;22571;-28
2022/07/16 12:50:40;;;;;;;1.10;0.60;;;;;;;;;;103102;1314;23061;-28
2022/07/16 12:53:09;;;;;;;1.10;0.40;;;;;;;;;;103089;1326;22715;-31
2022/07/16 13:00:43;;;;;;;1.10;0.40;;;;;;;;;;103185;1320;22705;-24
2022/07/16 13:03:11;;;;;;;0.30;0.20;;;;;;;;;;103053;1315;22561;-26
2022/07/16 13:05:40;;;;;;;0.70;0.40;;;;;;;;;;103136;1314;22586;-31
2022/07/16 13:08:09;;;;;;;5.40;0.70;;;;;;;;;;103289;1327;22681;-31
2022/07/16 13:10:38;;;;;;;0.80;0.20;;;;;;;;;;103063;1320;22571;-28
2022/07/16 13:13:07;;;;;;;2.20;0.70;;;;;;;;;;103100;1314;22722;-25
2022/07/16 13:15:36;;;;;;;0.40;0.30;;;;;;;;;;103259;1314;22575;-27
2022/07/16 13:18:05;;;;;;;1.10;0.20;;;;;;;;;;103183;1320;22723;-25
2022/07/16 13:20:34;;;;;;;8.10;0.70;;;;;;;;;;103123;1314;22552;-24
2022/07/16 13:23:03;;;;;;;21.80;0.70;;;;;;;;;;102397;1326;1003599;-31
2022/07/16 13:25:32;;;;;;;0.80;0.30;;;;;;;;;;103336;1314;22846;-29
2022/07/16 13:28:01;;;;;;;0.30;0.30;;;;;;;;;;103235;1321;23181;-25
2022/07/16 13:30:30;;;;;;;8.80;1.00;;;;;;;;;;103253;1320;23177;-31
2022/07/16 13:32:59;;;;;;;0.70;0.60;;;;;;;;;;103178;1321;22717;-25
2022/07/16 13:35:28;;;;;;;3.00;0.10;;;;;;;;;;103208;1326;22700;-24
2022/07/16 13:37:56;;;;;;;6.90;0.20;;;;;;;;;;103096;1320;22578;-25
2022/07/16 13:40:25;;;;;;;0.20;0.10;;;;;;;;;;103081;1318;22877;-24
2022/07/16 13:43:03;;;;;;;0.90;0.20;;;;;;;;;;103112;1326;23071;-28
2022/07/16 13:45:40;;;;;;;1.40;0.20;;;;;;;;;;103125;1321;22719;-29
2022/07/16 13:48:09;;;;;;;0.90;0.20;;;;;;;;;;103274;1321;22871;-30
2022/07/16 13:50:40;;;;;;;1.80;0.10;;;;;;;;;;103107;1326;22576;-29
2022/07/16 13:53:08;;;;;;;3.00;0.20;;;;;;;;;;103312;1322;22732;-25
2022/07/16 13:55:37;;;;;;;2.80;1.60;;;;;;;;;;103199;1315;22564;-25
2022/07/16 14:00:40;;;;;;;1.70;0.40;;;;;;;;;;103134;1321;22727;-30
2022/07/16 14:03:09;;;;;;;0.40;0.40;;;;;;;;;;103185;1326;22859;-30
2022/07/16 14:05:39;;;;;;;0.60;0.30;;;;;;;;;;103237;1320;22866;-27
2022/07/16 14:08:08;;;;;;;0.10;0.10;;;;;;;;;;103033;1328;22979;-28
2022/07/16 14:10:37;;;;;;;0.90;0.40;;;;;;;;;;103085;1320;22718;-26
2022/07/16 14:13:06;;;;;;;1.10;0.20;;;;;;;;;;103037;1320;22694;-25
2022/07/16 14:15:35;;;;;;;0.30;0.10;;;;;;;;;;103056;1326;22720;-30
2022/07/16 14:18:05;;;;;;;2.00;1.40;;;;;;;;;;103105;1320;22562;-26
2022/07/16 14:20:34;;;;;;;1.30;0.70;;;;;;;;;;103302;1315;22469;-25
2022/07/16 14:23:04;;;;;;;1.40;1.00;;;;;;;;;;103125;1314;22562;-29
2022/07/16 14:25:36;;;;;;;0.70;0.10;;;;;;;;;;103208;1321;22864;-25
2022/07/16 14:28:05;;;;;;;0.90;0.10;;;;;;;;;;103141;1318;25316;-26
2022/07/16 14:30:34;;;;;;;1.10;0.30;;;;;;;;;;103142;1314;22723;-29
2022/07/16 14:33:03;;;;;;;7.50;0.20;;;;;;;;;;103175;1323;24295;-26
2022/07/16 14:35:32;;;;;;;0.30;0.30;;;;;;;;;;103187;1315;23022;-25
2022/07/16 14:38:00;;;;;;;0.30;0.30;;;;;;;;;;103103;1323;22565;-29
2022/07/16 14:40:29;;;;;;;0.40;0.20;;;;;;;;;;103263;1314;23028;-29
2022/07/16 14:42:58;;;;;;;0.70;0.10;;;;;;;;;;103178;1323;22732;-32
2022/07/16 14:45:27;;;;;;;0.30;0.20;;;;;;;;;;103149;1320;22711;-29
2022/07/16 14:47:56;;;;;;;0.80;0.60;;;;;;;;;;103121;1326;22567;-25
2022/07/16 14:50:24;;;;;;;3.30;0.90;;;;;;;;;;103253;1320;22763;-30
2022/07/16 14:52:53;;;;;;;0.80;0.50;;;;;;;;;;103099;1322;23027;-25
2022/07/16 14:55:22;;;;;;;1.60;0.90;;;;;;;;;;103198;1326;22700;-29
2022/07/16 14:57:51;;;;;;;0.70;0.50;;;;;;;;;;103067;1315;22598;-29
2022/07/16 15:00:19;;;;;;;7.70;0.40;;;;;;;;;;103156;1313;22565;-29